sensor_id;sensor_type;location;lat;lon;timestamp;temperature;humidity
27306;DHT22;14792;50.886;6.468;2023-07-13T00:00:23;16.40;99.90
27306;DHT22;14792;50.886;6.468;2023-07-13T00:03:24;16.30;99.90
27306;DHT22;14792;50.886;6.468;2023-07-13T00:06:26;16.30;99.90
27306;DHT22;14792;50.886;6.468;2023-07-13T00:09:27;16.20;99.90
27306;DHT22;14792;50.886;6.468;2023-07-13T00:12:34;16.10;99.90
27306;DHT22;14792;50.886;6.468;2023-07-13T00:15:33;16.10;99.90
27306;DHT22;14792;50.886;6.468;2023-07-13T00:18:35;16.00;99.90
27306;DHT22;14792;50.886;6.468;2023-07-13T00:21:37;16.00;99.90
27306;DHT22;14792;50.886;6.468;2023-07-13T00:24:38;15.80;99.90
27306;DHT22;14792;50.886;6.468;2023-07-13T00:27:40;15.80;99.90
27306;DHT22;14792;50.886;6.468;2023-07-13T00:30:41;15.80;99.90
27306;DHT22;14792;50.886;6.468;2023-07-13T00:33:43;15.80;99.90
27306;DHT22;14792;50.886;6.468;2023-07-13T00:36:44;15.70;99.90
27306;DHT22;14792;50.886;6.468;2023-07-13T00:39:46;15.60;99.90
27306;DHT22;14792;50.886;6.468;2023-07-13T00:42:47;15.60;99.90
27306;DHT22;14792;50.886;6.468;2023-07-13T00:48:51;15.50;99.90
27306;DHT22;14792;50.886;6.468;2023-07-13T00:51:55;15.50;99.90
27306;DHT22;14792;50.886;6.468;2023-07-13T00:54:56;15.50;99.90
27306;DHT22;14792;50.886;6.468;2023-07-13T00:57:58;15.50;99.90
27306;DHT22;14792;50.886;6.468;2023-07-13T01:00:59;15.50;99.90
27306;DHT22;14792;50.886;6.468;2023-07-13T01:04:01;15.50;99.90
27306;DHT22;14792;50.886;6.468;2023-07-13T01:07:03;15.40;99.90
27306;DHT22;14792;50.886;6.468;2023-07-13T01:10:04;15.40;99.90
27306;DHT22;14792;50.886;6.468;2023-07-13T01:13:07;15.40;99.90
27306;DHT22;14792;50.886;6.468;2023-07-13T01:16:13;15.40;99.90
27306;DHT22;14792;50.886;6.468;2023-07-13T01:19:32;15.30;99.90
27306;DHT22;14792;50.886;6.468;2023-07-13T01:22:14;15.30;99.90
27306;DHT22;14792;50.886;6.468;2023-07-13T01:25:15;15.30;99.90
27306;DHT22;14792;50.886;6.468;2023-07-13T01:28:17;15.30;99.90
27306;DHT22;14792;50.886;6.468;2023-07-13T01:31:18;15.20;99.90
27306;DHT22;14792;50.886;6.468;2023-07-13T01:34:20;15.20;99.90
27306;DHT22;14792;50.886;6.468;2023-07-13T01:37:22;15.10;99.90
27306;DHT22;14792;50.886;6.468;2023-07-13T01:40:23;15.10;99.90
27306;DHT22;14792;50.886;6.468;2023-07-13T01:43:25;15.10;99.90
27306;DHT22;14792;50.886;6.468;2023-07-13T01:46:26;15.10;99.90
27306;DHT22;14792;50.886;6.468;2023-07-13T01:49:28;15.10;99.90
27306;DHT22;14792;50.886;6.468;2023-07-13T01:52:29;15.10;99.90
27306;DHT22;14792;50.886;6.468;2023-07-13T01:55:31;15.10;99.90
27306;DHT22;14792;50.886;6.468;2023-07-13T01:58:32;15.00;99.90
27306;DHT22;14792;50.886;6.468;2023-07-13T02:01:34;15.00;99.90
27306;DHT22;14792;50.886;6.468;2023-07-13T02:04:36;15.00;99.90
27306;DHT22;14792;50.886;6.468;2023-07-13T02:07:39;14.90;99.90
27306;DHT22;14792;50.886;6.468;2023-07-13T02:10:40;14.90;99.90
27306;DHT22;14792;50.886;6.468;2023-07-13T02:13:41;14.90;99.90
27306;DHT22;14792;50.886;6.468;2023-07-13T02:16:43;14.80;99.90
27306;DHT22;14792;50.886;6.468;2023-07-13T02:19:45;14.80;99.90
27306;DHT22;14792;50.886;6.468;2023-07-13T02:22:46;14.80;99.90
27306;DHT22;14792;50.886;6.468;2023-07-13T02:25:48;14.80;99.90
27306;DHT22;14792;50.886;6.468;2023-07-13T02:28:49;14.80;99.90
27306;DHT22;14792;50.886;6.468;2023-07-13T02:31:51;14.80;99.90
27306;DHT22;14792;50.886;6.468;2023-07-13T02:34:53;14.80;99.90
27306;DHT22;14792;50.886;6.468;2023-07-13T02:37:54;14.80;99.90
27306;DHT22;14792;50.886;6.468;2023-07-13T02:40:56;14.70;99.90
27306;DHT22;14792;50.886;6.468;2023-07-13T02:43:58;14.70;99.90
27306;DHT22;14792;50.886;6.468;2023-07-13T02:46:59;14.70;99.90
27306;DHT22;14792;50.886;6.468;2023-07-13T02:50:01;14.70;99.90
27306;DHT22;14792;50.886;6.468;2023-07-13T02:53:02;14.70;99.90
27306;DHT22;14792;50.886;6.468;2023-07-13T02:56:04;14.70;99.90
27306;DHT22;14792;50.886;6.468;2023-07-13T02:59:06;14.70;99.90
27306;DHT22;14792;50.886;6.468;2023-07-13T03:02:08;14.70;99.90
27306;DHT22;14792;50.886;6.468;2023-07-13T03:05:10;14.70;99.90
27306;DHT22;14792;50.886;6.468;2023-07-13T03:08:12;14.70;99.90
27306;DHT22;14792;50.886;6.468;2023-07-13T03:11:14;14.60;99.90
27306;DHT22;14792;50.886;6.468;2023-07-13T03:14:15;14.70;99.90
27306;DHT22;14792;50.886;6.468;2023-07-13T03:17:17;14.70;99.90
27306;DHT22;14792;50.886;6.468;2023-07-13T03:20:18;14.70;99.90
27306;DHT22;14792;50.886;6.468;2023-07-13T03:23:20;14.70;99.90
27306;DHT22;14792;50.886;6.468;2023-07-13T03:26:21;14.70;99.90
27306;DHT22;14792;50.886;6.468;2023-07-13T03:29:23;14.70;99.90
27306;DHT22;14792;50.886;6.468;2023-07-13T03:32:25;14.70;99.90
27306;DHT22;14792;50.886;6.468;2023-07-13T03:35:26;14.80;99.90
27306;DHT22;14792;50.886;6.468;2023-07-13T03:38:28;14.80;99.90
27306;DHT22;14792;50.886;6.468;2023-07-13T03:41:29;14.80;99.90
27306;DHT22;14792;50.886;6.468;2023-07-13T03:44:31;14.80;99.90
27306;DHT22;14792;50.886;6.468;2023-07-13T03:47:32;14.80;99.90
27306;DHT22;14792;50.886;6.468;2023-07-13T03:50:34;14.80;99.90
27306;DHT22;14792;50.886;6.468;2023-07-13T03:53:39;14.80;99.90
27306;DHT22;14792;50.886;6.468;2023-07-13T03:56:40;14.80;99.90
27306;DHT22;14792;50.886;6.468;2023-07-13T03:59:41;14.90;99.90
27306;DHT22;14792;50.886;6.468;2023-07-13T04:02:43;14.90;99.90
27306;DHT22;14792;50.886;6.468;2023-07-13T04:05:44;14.90;99.90
27306;DHT22;14792;50.886;6.468;2023-07-13T04:08:47;14.90;99.90
27306;DHT22;14792;50.886;6.468;2023-07-13T04:11:48;15.00;99.90
27306;DHT22;14792;50.886;6.468;2023-07-13T04:14:49;15.00;99.90
27306;DHT22;14792;50.886;6.468;2023-07-13T04:17:51;15.00;99.90
27306;DHT22;14792;50.886;6.468;2023-07-13T04:20:52;15.00;99.90
27306;DHT22;14792;50.886;6.468;2023-07-13T04:23:54;15.00;99.90
27306;DHT22;14792;50.886;6.468;2023-07-13T04:26:56;15.00;99.90
27306;DHT22;14792;50.886;6.468;2023-07-13T04:29:57;15.10;99.90
27306;DHT22;14792;50.886;6.468;2023-07-13T04:32:59;15.10;99.90
27306;DHT22;14792;50.886;6.468;2023-07-13T04:36:00;15.20;99.90
27306;DHT22;14792;50.886;6.468;2023-07-13T04:39:02;15.20;99.90
27306;DHT22;14792;50.886;6.468;2023-07-13T04:42:04;15.20;99.90
27306;DHT22;14792;50.886;6.468;2023-07-13T04:45:06;15.20;99.90
27306;DHT22;14792;50.886;6.468;2023-07-13T04:48:08;15.20;99.90
27306;DHT22;14792;50.886;6.468;2023-07-13T04:51:09;15.30;99.90
27306;DHT22;14792;50.886;6.468;2023-07-13T04:54:11;15.30;99.90
27306;DHT22;14792;50.886;6.468;2023-07-13T04:57:12;15.40;99.90
27306;DHT22;14792;50.886;6.468;2023-07-13T05:00:14;15.40;99.90
27306;DHT22;14792;50.886;6.468;2023-07-13T05:03:16;15.50;99.90
27306;DHT22;14792;50.886;6.468;2023-07-13T05:06:17;15.50;99.90
27306;DHT22;14792;50.886;6.468;2023-07-13T05:09:19;15.60;99.90
27306;DHT22;14792;50.886;6.468;2023-07-13T05:12:20;15.60;99.90
27306;DHT22;14792;50.886;6.468;2023-07-13T05:15:22;15.70;99.90
27306;DHT22;14792;50.886;6.468;2023-07-13T05:18:24;15.80;99.90
27306;DHT22;14792;50.886;6.468;2023-07-13T05:21:25;15.90;99.90
27306;DHT22;14792;50.886;6.468;2023-07-13T05:24:27;15.90;99.90
27306;DHT22;14792;50.886;6.468;2023-07-13T05:27:28;16.00;99.90
27306;DHT22;14792;50.886;6.468;2023-07-13T05:30:30;16.10;99.90
27306;DHT22;14792;50.886;6.468;2023-07-13T05:33:31;16.20;99.90
27306;DHT22;14792;50.886;6.468;2023-07-13T05:36:33;16.30;99.90
27306;DHT22;14792;50.886;6.468;2023-07-13T05:39:35;16.40;99.90
27306;DHT22;14792;50.886;6.468;2023-07-13T05:42:38;16.40;99.90
27306;DHT22;14792;50.886;6.468;2023-07-13T05:45:40;16.40;99.90
27306;DHT22;14792;50.886;6.468;2023-07-13T05:48:41;16.30;99.90
27306;DHT22;14792;50.886;6.468;2023-07-13T05:51:43;16.30;99.90
27306;DHT22;14792;50.886;6.468;2023-07-13T05:54:44;16.40;99.90
27306;DHT22;14792;50.886;6.468;2023-07-13T05:57:46;16.40;99.90
27306;DHT22;14792;50.886;6.468;2023-07-13T06:00:48;16.40;99.90
27306;DHT22;14792;50.886;6.468;2023-07-13T06:03:49;16.40;99.90
27306;DHT22;14792;50.886;6.468;2023-07-13T06:06:51;16.40;99.90
27306;DHT22;14792;50.886;6.468;2023-07-13T06:09:52;16.50;99.90
27306;DHT22;14792;50.886;6.468;2023-07-13T06:12:54;16.50;99.90
27306;DHT22;14792;50.886;6.468;2023-07-13T06:15:55;16.50;99.90
27306;DHT22;14792;50.886;6.468;2023-07-13T06:18:57;16.60;99.90
27306;DHT22;14792;50.886;6.468;2023-07-13T06:21:59;16.80;99.90
27306;DHT22;14792;50.886;6.468;2023-07-13T06:25:00;16.80;99.90
27306;DHT22;14792;50.886;6.468;2023-07-13T06:28:02;17.00;99.90
27306;DHT22;14792;50.886;6.468;2023-07-13T06:31:07;17.20;99.90
27306;DHT22;14792;50.886;6.468;2023-07-13T06:34:05;17.20;99.90
27306;DHT22;14792;50.886;6.468;2023-07-13T06:37:07;17.40;99.90
27306;DHT22;14792;50.886;6.468;2023-07-13T06:40:08;17.40;99.90
27306;DHT22;14792;50.886;6.468;2023-07-13T06:43:10;17.60;99.90
27306;DHT22;14792;50.886;6.468;2023-07-13T06:46:11;17.90;99.90
27306;DHT22;14792;50.886;6.468;2023-07-13T06:49:13;18.10;99.90
27306;DHT22;14792;50.886;6.468;2023-07-13T06:52:15;18.40;99.90
27306;DHT22;14792;50.886;6.468;2023-07-13T06:55:16;18.50;99.90
27306;DHT22;14792;50.886;6.468;2023-07-13T06:58:18;18.30;99.90
27306;DHT22;14792;50.886;6.468;2023-07-13T07:01:19;18.20;99.90
27306;DHT22;14792;50.886;6.468;2023-07-13T07:04:21;18.10;99.90
27306;DHT22;14792;50.886;6.468;2023-07-13T07:07:26;18.10;99.90
27306;DHT22;14792;50.886;6.468;2023-07-13T07:10:24;18.10;99.90
27306;DHT22;14792;50.886;6.468;2023-07-13T07:13:26;18.10;99.90
27306;DHT22;14792;50.886;6.468;2023-07-13T07:16:27;18.30;99.90
27306;DHT22;14792;50.886;6.468;2023-07-13T07:19:29;18.30;99.90
27306;DHT22;14792;50.886;6.468;2023-07-13T07:22:31;18.60;99.90
27306;DHT22;14792;50.886;6.468;2023-07-13T07:25:32;18.30;99.90
27306;DHT22;14792;50.886;6.468;2023-07-13T07:28:34;18.60;99.90
27306;DHT22;14792;50.886;6.468;2023-07-13T07:31:35;18.50;99.90
27306;DHT22;14792;50.886;6.468;2023-07-13T07:34:37;18.50;99.90
27306;DHT22;14792;50.886;6.468;2023-07-13T07:37:39;18.60;99.90
27306;DHT22;14792;50.886;6.468;2023-07-13T07:40:40;18.90;99.90
27306;DHT22;14792;50.886;6.468;2023-07-13T07:43:42;19.20;99.90
27306;DHT22;14792;50.886;6.468;2023-07-13T07:46:43;19.20;99.90
27306;DHT22;14792;50.886;6.468;2023-07-13T07:49:45;19.30;99.90
27306;DHT22;14792;50.886;6.468;2023-07-13T07:52:46;19.30;99.90
27306;DHT22;14792;50.886;6.468;2023-07-13T07:55:48;19.30;99.90
27306;DHT22;14792;50.886;6.468;2023-07-13T07:58:50;19.40;99.90
27306;DHT22;14792;50.886;6.468;2023-07-13T08:01:51;19.40;99.90
27306;DHT22;14792;50.886;6.468;2023-07-13T08:04:53;19.60;99.90
27306;DHT22;14792;50.886;6.468;2023-07-13T08:07:54;19.50;99.90
27306;DHT22;14792;50.886;6.468;2023-07-13T08:10:56;19.60;99.90
27306;DHT22;14792;50.886;6.468;2023-07-13T08:13:58;19.60;99.90
27306;DHT22;14792;50.886;6.468;2023-07-13T08:16:59;19.70;99.90
27306;DHT22;14792;50.886;6.468;2023-07-13T08:20:01;19.70;99.90
27306;DHT22;14792;50.886;6.468;2023-07-13T08:23:02;19.80;99.90
27306;DHT22;14792;50.886;6.468;2023-07-13T08:26:04;20.10;99.90
27306;DHT22;14792;50.886;6.468;2023-07-13T08:29:06;20.20;99.90
27306;DHT22;14792;50.886;6.468;2023-07-13T08:32:08;20.20;99.90
27306;DHT22;14792;50.886;6.468;2023-07-13T08:35:10;20.20;99.90
27306;DHT22;14792;50.886;6.468;2023-07-13T08:38:11;20.40;99.90
27306;DHT22;14792;50.886;6.468;2023-07-13T08:41:14;20.70;99.90
27306;DHT22;14792;50.886;6.468;2023-07-13T08:44:20;20.90;99.90
27306;DHT22;14792;50.886;6.468;2023-07-13T08:47:16;20.90;99.90
27306;DHT22;14792;50.886;6.468;2023-07-13T08:50:19;20.90;99.90
27306;DHT22;14792;50.886;6.468;2023-07-13T08:53:19;21.10;99.90
27306;DHT22;14792;50.886;6.468;2023-07-13T08:56:27;21.20;99.90
27306;DHT22;14792;50.886;6.468;2023-07-13T08:59:26;21.00;99.90
27306;DHT22;14792;50.886;6.468;2023-07-13T09:05:38;21.50;99.90
27306;DHT22;14792;50.886;6.468;2023-07-13T09:08:46;21.60;99.90
27306;DHT22;14792;50.886;6.468;2023-07-13T09:14:54;22.00;99.90
27306;DHT22;14792;50.886;6.468;2023-07-13T09:17:55;21.70;99.90
27306;DHT22;14792;50.886;6.468;2023-07-13T09:21:03;21.30;99.90
27306;DHT22;14792;50.886;6.468;2023-07-13T09:24:12;21.50;99.90
27306;DHT22;14792;50.886;6.468;2023-07-13T09:27:03;22.10;99.90
27306;DHT22;14792;50.886;6.468;2023-07-13T09:33:17;22.40;99.90
27306;DHT22;14792;50.886;6.468;2023-07-13T09:36:28;22.80;99.90
27306;DHT22;14792;50.886;6.468;2023-07-13T09:39:36;22.80;99.90
27306;DHT22;14792;50.886;6.468;2023-07-13T09:42:37;22.90;99.90
27306;DHT22;14792;50.886;6.468;2023-07-13T09:45:39;22.90;99.90
27306;DHT22;14792;50.886;6.468;2023-07-13T09:48:42;23.30;99.90
27306;DHT22;14792;50.886;6.468;2023-07-13T09:51:42;23.30;99.90
27306;DHT22;14792;50.886;6.468;2023-07-13T09:54:44;23.10;99.90
27306;DHT22;14792;50.886;6.468;2023-07-13T09:57:46;23.50;99.90
27306;DHT22;14792;50.886;6.468;2023-07-13T10:00:57;23.20;99.90
27306;DHT22;14792;50.886;6.468;2023-07-13T10:03:57;23.40;99.90
27306;DHT22;14792;50.886;6.468;2023-07-13T10:07:09;23.40;99.90
27306;DHT22;14792;50.886;6.468;2023-07-13T10:10:16;23.50;99.90
27306;DHT22;14792;50.886;6.468;2023-07-13T10:13:36;23.00;99.90
27306;DHT22;14792;50.886;6.468;2023-07-13T10:16:38;23.30;99.90
27306;DHT22;14792;50.886;6.468;2023-07-13T10:19:41;23.20;99.90
27306;DHT22;14792;50.886;6.468;2023-07-13T10:22:45;23.60;99.90
27306;DHT22;14792;50.886;6.468;2023-07-13T10:25:45;23.40;99.90
27306;DHT22;14792;50.886;6.468;2023-07-13T10:28:47;23.50;99.90
27306;DHT22;14792;50.886;6.468;2023-07-13T10:31:48;23.40;99.90
27306;DHT22;14792;50.886;6.468;2023-07-13T10:34:50;23.00;99.90
27306;DHT22;14792;50.886;6.468;2023-07-13T10:38:02;23.30;99.90
27306;DHT22;14792;50.886;6.468;2023-07-13T10:40:57;24.00;99.90
27306;DHT22;14792;50.886;6.468;2023-07-13T10:43:57;24.20;99.90
27306;DHT22;14792;50.886;6.468;2023-07-13T10:47:11;24.60;99.90
27306;DHT22;14792;50.886;6.468;2023-07-13T10:50:01;24.20;99.90
27306;DHT22;14792;50.886;6.468;2023-07-13T10:53:03;23.90;99.90
27306;DHT22;14792;50.886;6.468;2023-07-13T10:56:05;23.60;99.90
27306;DHT22;14792;50.886;6.468;2023-07-13T10:59:10;23.40;99.90
27306;DHT22;14792;50.886;6.468;2023-07-13T11:02:13;23.30;99.90
27306;DHT22;14792;50.886;6.468;2023-07-13T11:05:26;23.10;99.90
27306;DHT22;14792;50.886;6.468;2023-07-13T11:14:42;23.50;99.90
27306;DHT22;14792;50.886;6.468;2023-07-13T11:17:53;23.40;99.90
27306;DHT22;14792;50.886;6.468;2023-07-13T11:20:52;23.80;99.90
27306;DHT22;14792;50.886;6.468;2023-07-13T11:24:00;23.60;99.90
27306;DHT22;14792;50.886;6.468;2023-07-13T11:26:56;23.40;99.90
27306;DHT22;14792;50.886;6.468;2023-07-13T11:33:22;23.10;99.90
27306;DHT22;14792;50.886;6.468;2023-07-13T11:36:22;23.00;99.90
27306;DHT22;14792;50.886;6.468;2023-07-13T11:39:25;23.40;99.90
27306;DHT22;14792;50.886;6.468;2023-07-13T11:42:24;23.30;99.90
27306;DHT22;14792;50.886;6.468;2023-07-13T11:45:26;24.20;99.90
27306;DHT22;14792;50.886;6.468;2023-07-13T11:48:28;24.30;99.90
27306;DHT22;14792;50.886;6.468;2023-07-13T11:51:29;24.10;99.90
27306;DHT22;14792;50.886;6.468;2023-07-13T11:54:41;23.50;99.90
27306;DHT22;14792;50.886;6.468;2023-07-13T11:57:37;23.50;99.90
27306;DHT22;14792;50.886;6.468;2023-07-13T12:00:38;23.30;99.90
27306;DHT22;14792;50.886;6.468;2023-07-13T12:03:39;23.20;99.90
27306;DHT22;14792;50.886;6.468;2023-07-13T12:06:41;23.40;99.90
27306;DHT22;14792;50.886;6.468;2023-07-13T12:09:42;23.20;99.90
27306;DHT22;14792;50.886;6.468;2023-07-13T12:12:48;23.20;99.90
27306;DHT22;14792;50.886;6.468;2023-07-13T12:15:48;23.40;99.90
27306;DHT22;14792;50.886;6.468;2023-07-13T12:18:51;23.70;99.90
27306;DHT22;14792;50.886;6.468;2023-07-13T12:21:55;24.10;99.90
27306;DHT22;14792;50.886;6.468;2023-07-13T12:24:53;24.50;99.90
27306;DHT22;14792;50.886;6.468;2023-07-13T12:27:55;24.70;99.90
27306;DHT22;14792;50.886;6.468;2023-07-13T12:31:00;24.90;99.90
27306;DHT22;14792;50.886;6.468;2023-07-13T12:34:15;25.00;99.90
27306;DHT22;14792;50.886;6.468;2023-07-13T12:37:15;24.90;99.90
27306;DHT22;14792;50.886;6.468;2023-07-13T12:40:16;25.10;99.90
27306;DHT22;14792;50.886;6.468;2023-07-13T12:43:19;25.40;99.90
27306;DHT22;14792;50.886;6.468;2023-07-13T12:46:20;25.40;99.90
27306;DHT22;14792;50.886;6.468;2023-07-13T12:49:23;24.90;99.90
27306;DHT22;14792;50.886;6.468;2023-07-13T12:52:24;25.50;99.90
27306;DHT22;14792;50.886;6.468;2023-07-13T12:55:24;25.10;99.90
27306;DHT22;14792;50.886;6.468;2023-07-13T12:58:27;24.90;99.90
27306;DHT22;14792;50.886;6.468;2023-07-13T13:01:28;25.20;99.90
27306;DHT22;14792;50.886;6.468;2023-07-13T13:04:29;24.90;99.90
27306;DHT22;14792;50.886;6.468;2023-07-13T13:07:31;25.20;99.90
27306;DHT22;14792;50.886;6.468;2023-07-13T13:10:32;25.10;99.90
27306;DHT22;14792;50.886;6.468;2023-07-13T13:13:34;25.00;99.90
27306;DHT22;14792;50.886;6.468;2023-07-13T13:16:37;24.60;99.90
27306;DHT22;14792;50.886;6.468;2023-07-13T13:19:38;24.60;99.90
27306;DHT22;14792;50.886;6.468;2023-07-13T13:22:39;24.80;99.90
27306;DHT22;14792;50.886;6.468;2023-07-13T13:25:41;24.90;99.90
27306;DHT22;14792;50.886;6.468;2023-07-13T13:28:43;24.70;99.90
27306;DHT22;14792;50.886;6.468;2023-07-13T13:31:44;24.80;99.90
27306;DHT22;14792;50.886;6.468;2023-07-13T13:34:46;24.60;99.90
27306;DHT22;14792;50.886;6.468;2023-07-13T13:37:47;25.00;99.90
27306;DHT22;14792;50.886;6.468;2023-07-13T13:40:49;24.70;99.40
27306;DHT22;14792;50.886;6.468;2023-07-13T13:43:50;24.40;99.90
27306;DHT22;14792;50.886;6.468;2023-07-13T13:46:53;24.80;99.90
27306;DHT22;14792;50.886;6.468;2023-07-13T13:49:54;25.10;99.90
27306;DHT22;14792;50.886;6.468;2023-07-13T13:52:55;24.50;99.90
27306;DHT22;14792;50.886;6.468;2023-07-13T13:55:57;24.80;99.90
27306;DHT22;14792;50.886;6.468;2023-07-13T13:58:58;25.30;99.90
27306;DHT22;14792;50.886;6.468;2023-07-13T14:02:00;25.00;99.90
27306;DHT22;14792;50.886;6.468;2023-07-13T14:05:02;24.80;99.50
27306;DHT22;14792;50.886;6.468;2023-07-13T14:08:03;25.10;99.00
27306;DHT22;14792;50.886;6.468;2023-07-13T14:11:05;25.00;98.40
27306;DHT22;14792;50.886;6.468;2023-07-13T14:14:08;25.00;99.70
27306;DHT22;14792;50.886;6.468;2023-07-13T14:17:13;25.00;98.90
27306;DHT22;14792;50.886;6.468;2023-07-13T14:20:11;24.70;98.40
27306;DHT22;14792;50.886;6.468;2023-07-13T14:23:12;24.80;99.40
27306;DHT22;14792;50.886;6.468;2023-07-13T14:26:20;25.00;99.00
27306;DHT22;14792;50.886;6.468;2023-07-13T14:29:18;25.20;99.70
27306;DHT22;14792;50.886;6.468;2023-07-13T14:32:18;24.80;99.20
27306;DHT22;14792;50.886;6.468;2023-07-13T14:35:21;24.70;99.80
27306;DHT22;14792;50.886;6.468;2023-07-13T14:38:22;24.80;99.30
27306;DHT22;14792;50.886;6.468;2023-07-13T14:41:23;24.80;99.10
27306;DHT22;14792;50.886;6.468;2023-07-13T14:44:26;24.80;99.30
27306;DHT22;14792;50.886;6.468;2023-07-13T14:47:26;24.80;99.50
27306;DHT22;14792;50.886;6.468;2023-07-13T14:50:30;24.80;99.90
27306;DHT22;14792;50.886;6.468;2023-07-13T14:53:30;24.80;99.70
27306;DHT22;14792;50.886;6.468;2023-07-13T14:56:31;25.00;99.90
27306;DHT22;14792;50.886;6.468;2023-07-13T14:59:33;24.60;99.80
27306;DHT22;14792;50.886;6.468;2023-07-13T15:02:34;24.30;99.90
27306;DHT22;14792;50.886;6.468;2023-07-13T15:05:36;24.30;99.90
27306;DHT22;14792;50.886;6.468;2023-07-13T15:08:39;24.70;99.90
27306;DHT22;14792;50.886;6.468;2023-07-13T15:11:40;24.60;99.90
27306;DHT22;14792;50.886;6.468;2023-07-13T15:14:41;24.30;99.30
27306;DHT22;14792;50.886;6.468;2023-07-13T15:17:44;24.30;99.90
27306;DHT22;14792;50.886;6.468;2023-07-13T15:20:45;24.20;99.90
27306;DHT22;14792;50.886;6.468;2023-07-13T15:23:46;24.00;99.90
27306;DHT22;14792;50.886;6.468;2023-07-13T15:26:48;23.80;99.90
27306;DHT22;14792;50.886;6.468;2023-07-13T15:29:49;23.10;99.90
27306;DHT22;14792;50.886;6.468;2023-07-13T15:32:51;22.70;99.90
27306;DHT22;14792;50.886;6.468;2023-07-13T15:35:53;22.50;99.90
27306;DHT22;14792;50.886;6.468;2023-07-13T15:38:54;22.30;99.90
27306;DHT22;14792;50.886;6.468;2023-07-13T15:41:56;22.10;99.90
27306;DHT22;14792;50.886;6.468;2023-07-13T15:44:57;21.60;99.90
27306;DHT22;14792;50.886;6.468;2023-07-13T15:47:59;21.50;99.90
27306;DHT22;14792;50.886;6.468;2023-07-13T15:51:01;21.40;99.90
27306;DHT22;14792;50.886;6.468;2023-07-13T15:54:02;21.50;99.90
27306;DHT22;14792;50.886;6.468;2023-07-13T15:57:04;21.30;99.90
27306;DHT22;14792;50.886;6.468;2023-07-13T16:00:13;21.20;99.90
27306;DHT22;14792;50.886;6.468;2023-07-13T16:03:10;21.20;99.90
27306;DHT22;14792;50.886;6.468;2023-07-13T16:06:30;21.10;99.90
27306;DHT22;14792;50.886;6.468;2023-07-13T16:09:28;21.00;99.90
27306;DHT22;14792;50.886;6.468;2023-07-13T16:12:30;21.00;99.90
27306;DHT22;14792;50.886;6.468;2023-07-13T16:15:31;21.00;99.90
27306;DHT22;14792;50.886;6.468;2023-07-13T16:18:33;21.00;99.90
27306;DHT22;14792;50.886;6.468;2023-07-13T16:21:40;21.00;99.90
27306;DHT22;14792;50.886;6.468;2023-07-13T16:24:39;21.10;99.90
27306;DHT22;14792;50.886;6.468;2023-07-13T16:27:41;21.10;99.90
27306;DHT22;14792;50.886;6.468;2023-07-13T16:30:43;21.20;99.90
27306;DHT22;14792;50.886;6.468;2023-07-13T16:33:44;21.40;99.90
27306;DHT22;14792;50.886;6.468;2023-07-13T16:36:46;21.40;99.90
27306;DHT22;14792;50.886;6.468;2023-07-13T16:39:51;21.70;99.90
27306;DHT22;14792;50.886;6.468;2023-07-13T16:42:54;22.00;99.90
27306;DHT22;14792;50.886;6.468;2023-07-13T16:45:56;21.90;99.90
27306;DHT22;14792;50.886;6.468;2023-07-13T16:49:00;22.10;99.90
27306;DHT22;14792;50.886;6.468;2023-07-13T16:52:02;22.10;99.90
27306;DHT22;14792;50.886;6.468;2023-07-13T16:55:03;21.90;99.90
27306;DHT22;14792;50.886;6.468;2023-07-13T16:58:05;21.80;99.90
27306;DHT22;14792;50.886;6.468;2023-07-13T17:01:07;21.70;99.90
27306;DHT22;14792;50.886;6.468;2023-07-13T17:04:10;21.80;99.90
27306;DHT22;14792;50.886;6.468;2023-07-13T17:07:11;21.80;99.90
27306;DHT22;14792;50.886;6.468;2023-07-13T17:13:15;21.70;99.90
27306;DHT22;14792;50.886;6.468;2023-07-13T17:16:16;21.80;99.90
27306;DHT22;14792;50.886;6.468;2023-07-13T17:19:18;21.90;99.90
27306;DHT22;14792;50.886;6.468;2023-07-13T17:22:19;21.90;99.90
27306;DHT22;14792;50.886;6.468;2023-07-13T17:25:21;22.00;99.90
27306;DHT22;14792;50.886;6.468;2023-07-13T17:28:22;22.10;99.90
27306;DHT22;14792;50.886;6.468;2023-07-13T17:31:24;22.20;99.90
27306;DHT22;14792;50.886;6.468;2023-07-13T17:34:25;22.50;99.90
27306;DHT22;14792;50.886;6.468;2023-07-13T17:37:27;22.50;99.90
27306;DHT22;14792;50.886;6.468;2023-07-13T17:40:29;22.50;99.90
27306;DHT22;14792;50.886;6.468;2023-07-13T17:43:30;22.50;99.90
27306;DHT22;14792;50.886;6.468;2023-07-13T17:46:32;22.40;99.90
27306;DHT22;14792;50.886;6.468;2023-07-13T17:49:33;22.40;99.90
27306;DHT22;14792;50.886;6.468;2023-07-13T17:52:35;22.40;99.90
27306;DHT22;14792;50.886;6.468;2023-07-13T17:55:36;22.40;99.90
27306;DHT22;14792;50.886;6.468;2023-07-13T17:58:39;22.30;99.90
27306;DHT22;14792;50.886;6.468;2023-07-13T18:01:41;22.30;99.90
27306;DHT22;14792;50.886;6.468;2023-07-13T18:04:42;22.20;99.90
27306;DHT22;14792;50.886;6.468;2023-07-13T18:07:44;22.10;99.90
27306;DHT22;14792;50.886;6.468;2023-07-13T18:10:45;22.00;99.90
27306;DHT22;14792;50.886;6.468;2023-07-13T18:13:47;21.80;99.90
27306;DHT22;14792;50.886;6.468;2023-07-13T18:16:53;21.70;99.90
27306;DHT22;14792;50.886;6.468;2023-07-13T18:19:53;21.50;99.90
27306;DHT22;14792;50.886;6.468;2023-07-13T18:22:56;21.60;99.90
27306;DHT22;14792;50.886;6.468;2023-07-13T18:25:56;21.60;99.90
27306;DHT22;14792;50.886;6.468;2023-07-13T18:28:58;21.50;99.90
27306;DHT22;14792;50.886;6.468;2023-07-13T18:31:59;21.40;99.90
27306;DHT22;14792;50.886;6.468;2023-07-13T18:35:01;21.40;99.90
27306;DHT22;14792;50.886;6.468;2023-07-13T18:38:02;21.30;99.90
27306;DHT22;14792;50.886;6.468;2023-07-13T18:41:04;21.30;99.90
27306;DHT22;14792;50.886;6.468;2023-07-13T18:44:06;21.30;99.90
27306;DHT22;14792;50.886;6.468;2023-07-13T18:47:10;21.20;99.90
27306;DHT22;14792;50.886;6.468;2023-07-13T18:50:20;21.20;99.90
27306;DHT22;14792;50.886;6.468;2023-07-13T18:53:20;21.30;99.90
27306;DHT22;14792;50.886;6.468;2023-07-13T18:56:22;21.30;99.90
27306;DHT22;14792;50.886;6.468;2023-07-13T18:59:23;21.20;99.90
27306;DHT22;14792;50.886;6.468;2023-07-13T19:02:25;21.20;99.90
27306;DHT22;14792;50.886;6.468;2023-07-13T19:05:30;21.20;99.90
27306;DHT22;14792;50.886;6.468;2023-07-13T19:08:28;21.10;99.90
27306;DHT22;14792;50.886;6.468;2023-07-13T19:11:30;21.00;99.90
27306;DHT22;14792;50.886;6.468;2023-07-13T19:14:31;21.00;99.90
27306;DHT22;14792;50.886;6.468;2023-07-13T19:17:33;20.90;99.90
27306;DHT22;14792;50.886;6.468;2023-07-13T19:20:34;20.90;99.90
27306;DHT22;14792;50.886;6.468;2023-07-13T19:23:37;20.80;99.90
27306;DHT22;14792;50.886;6.468;2023-07-13T19:26:38;20.80;99.90
27306;DHT22;14792;50.886;6.468;2023-07-13T19:29:40;20.60;99.90
27306;DHT22;14792;50.886;6.468;2023-07-13T19:32:41;20.60;99.90